sensor_id;sensor_type;location;lat;lon;timestamp;pressure;altitude;pressure_sealevel;temperature;humidity
76973;BME280;65907;53.640;10.050;2023-07-09T00:01:10;101303.91;;;25.96;42.52
76973;BME280;65907;53.640;10.050;2023-07-09T00:03:37;101307.50;;;25.95;42.17
76973;BME280;65907;53.640;10.050;2023-07-09T00:06:03;101309.16;;;25.96;41.92
76973;BME280;65907;53.640;10.050;2023-07-09T00:08:29;101301.25;;;25.96;42.22
76973;BME280;65907;53.640;10.050;2023-07-09T00:10:55;101305.00;;;25.93;42.21
76973;BME280;65907;53.640;10.050;2023-07-09T00:13:22;101309.31;;;25.94;42.08
76973;BME280;65907;53.640;10.050;2023-07-09T00:15:47;101309.47;;;25.92;42.07
76973;BME280;65907;53.640;10.050;2023-07-09T00:18:13;101312.78;;;25.95;42.23
76973;BME280;65907;53.640;10.050;2023-07-09T00:20:38;101309.59;;;25.91;42.06
76973;BME280;65907;53.640;10.050;2023-07-09T00:23:03;101306.53;;;25.96;42.10
76973;BME280;65907;53.640;10.050;2023-07-09T00:25:29;101313.63;;;25.95;42.05
76973;BME280;65907;53.640;10.050;2023-07-09T00:27:55;101312.91;;;25.93;42.07
76973;BME280;65907;53.640;10.050;2023-07-09T00:30:20;101320.56;;;25.96;42.32
76973;BME280;65907;53.640;10.050;2023-07-09T00:32:50;101327.63;;;25.96;42.22
76973;BME280;65907;53.640;10.050;2023-07-09T00:35:17;101323.31;;;25.95;41.93
76973;BME280;65907;53.640;10.050;2023-07-09T00:37:43;101320.69;;;25.95;41.96
76973;BME280;65907;53.640;10.050;2023-07-09T00:40:19;101323.44;;;25.93;42.18
76973;BME280;65907;53.640;10.050;2023-07-09T00:42:46;101312.91;;;25.93;42.17
76973;BME280;65907;53.640;10.050;2023-07-09T00:45:16;101309.47;;;25.92;42.28
76973;BME280;65907;53.640;10.050;2023-07-09T00:47:47;101309.59;;;25.91;42.14
76973;BME280;65907;53.640;10.050;2023-07-09T00:52:57;101308.94;;;25.89;42.58
76973;BME280;65907;53.640;10.050;2023-07-09T00:55:28;101299.53;;;25.86;42.63
76973;BME280;65907;53.640;10.050;2023-07-09T00:57:57;101305.19;;;25.91;42.08
76973;BME280;65907;53.640;10.050;2023-07-09T01:00:25;101298.25;;;25.90;42.32
76973;BME280;65907;53.640;10.050;2023-07-09T01:02:53;101299.22;;;25.89;42.11
76973;BME280;65907;53.640;10.050;2023-07-09T01:05:18;101310.06;;;25.86;42.21
76973;BME280;65907;53.640;10.050;2023-07-09T01:07:45;101305.31;;;25.90;41.89
76973;BME280;65907;53.640;10.050;2023-07-09T01:10:14;101308.94;;;25.89;42.29
76973;BME280;65907;53.640;10.050;2023-07-09T01:12:40;101300.88;;;25.90;42.13
76973;BME280;65907;53.640;10.050;2023-07-09T01:15:06;101293.13;;;25.89;41.87
76973;BME280;65907;53.640;10.050;2023-07-09T01:17:32;101298.69;;;25.86;42.17
76973;BME280;65907;53.640;10.050;2023-07-09T01:19:58;101297.72;;;25.87;42.43
76973;BME280;65907;53.640;10.050;2023-07-09T01:22:29;101300.34;;;25.87;42.21
76973;BME280;65907;53.640;10.050;2023-07-09T01:25:03;101297.41;;;25.90;42.23
76973;BME280;65907;53.640;10.050;2023-07-09T01:27:46;101295.75;;;25.89;42.08
76973;BME280;65907;53.640;10.050;2023-07-09T01:32:42;101301.03;;;25.89;42.12
76973;BME280;65907;53.640;10.050;2023-07-09T01:35:11;101304.50;;;25.89;42.11
76973;BME280;65907;53.640;10.050;2023-07-09T01:37:37;101299.38;;;25.88;42.35
76973;BME280;65907;53.640;10.050;2023-07-09T01:40:03;101303.81;;;25.87;42.45
76973;BME280;65907;53.640;10.050;2023-07-09T01:42:33;101301.31;;;25.86;42.56
76973;BME280;65907;53.640;10.050;2023-07-09T01:44:58;101301.19;;;25.87;42.25
76973;BME280;65907;53.640;10.050;2023-07-09T01:47:26;101296.91;;;25.86;42.39
76973;BME280;65907;53.640;10.050;2023-07-09T01:49:52;101301.03;;;25.89;42.19
76973;BME280;65907;53.640;10.050;2023-07-09T01:52:21;101301.19;;;25.87;42.22
76973;BME280;65907;53.640;10.050;2023-07-09T01:54:48;101295.22;;;25.85;42.25
76973;BME280;65907;53.640;10.050;2023-07-09T01:59:39;101292.59;;;25.85;42.37
76973;BME280;65907;53.640;10.050;2023-07-09T02:02:06;101293.28;;;25.87;42.15
76973;BME280;65907;53.640;10.050;2023-07-09T02:04:31;101294.25;;;25.86;42.26
76973;BME280;65907;53.640;10.050;2023-07-09T02:06:56;101292.44;;;25.87;42.33
76973;BME280;65907;53.640;10.050;2023-07-09T02:09:22;101289.13;;;25.85;42.50
76973;BME280;65907;53.640;10.050;2023-07-09T02:11:49;101297.72;;;25.87;42.55
76973;BME280;65907;53.640;10.050;2023-07-09T02:14:15;101293.13;;;25.89;42.07
76973;BME280;65907;53.640;10.050;2023-07-09T02:16:40;101290.66;;;25.87;41.91
76973;BME280;65907;53.640;10.050;2023-07-09T02:19:05;101296.03;;;25.86;42.26
76973;BME280;65907;53.640;10.050;2023-07-09T02:21:30;101288.81;;;25.88;42.13
76973;BME280;65907;53.640;10.050;2023-07-09T02:23:56;101283.72;;;25.86;42.16
76973;BME280;65907;53.640;10.050;2023-07-09T02:26:21;101284.53;;;25.87;42.18
76973;BME280;65907;53.640;10.050;2023-07-09T02:28:46;101283.03;;;25.84;42.52
76973;BME280;65907;53.640;10.050;2023-07-09T02:31:11;101296.03;;;25.86;42.10
76973;BME280;65907;53.640;10.050;2023-07-09T02:33:36;101289.25;;;25.83;42.28
76973;BME280;65907;53.640;10.050;2023-07-09T02:36:05;101293.56;;;25.84;42.23
76973;BME280;65907;53.640;10.050;2023-07-09T02:38:30;101297.03;;;25.85;42.17
76973;BME280;65907;53.640;10.050;2023-07-09T02:40:55;101300.34;;;25.87;42.02
76973;BME280;65907;53.640;10.050;2023-07-09T02:43:20;101294.38;;;25.85;42.32
76973;BME280;65907;53.640;10.050;2023-07-09T02:45:46;101301.31;;;25.86;42.82
76973;BME280;65907;53.640;10.050;2023-07-09T02:48:11;101297.16;;;25.83;42.38
76973;BME280;65907;53.640;10.050;2023-07-09T02:50:36;101291.88;;;25.83;42.33
76973;BME280;65907;53.640;10.050;2023-07-09T02:53:01;101299.78;;;25.83;42.16
76973;BME280;65907;53.640;10.050;2023-07-09T02:55:26;101293.72;;;25.83;42.45
76973;BME280;65907;53.640;10.050;2023-07-09T02:57:52;101291.06;;;25.83;42.33
76973;BME280;65907;53.640;10.050;2023-07-09T03:00:17;101294.81;;;25.80;42.74
76973;BME280;65907;53.640;10.050;2023-07-09T03:02:42;101290.22;;;25.82;42.84
76973;BME280;65907;53.640;10.050;2023-07-09T03:05:07;101296.34;;;25.83;42.59
76973;BME280;65907;53.640;10.050;2023-07-09T03:07:35;101291.22;;;25.81;42.25
76973;BME280;65907;53.640;10.050;2023-07-09T03:10:00;101295.38;;;25.84;42.41
76973;BME280;65907;53.640;10.050;2023-07-09T03:12:25;101287.59;;;25.82;42.28
76973;BME280;65907;53.640;10.050;2023-07-09T03:14:53;101284.16;;;25.82;42.47
76973;BME280;65907;53.640;10.050;2023-07-09T03:17:18;101297.16;;;25.83;42.12
76973;BME280;65907;53.640;10.050;2023-07-09T03:19:43;101294.53;;;25.83;42.51
76973;BME280;65907;53.640;10.050;2023-07-09T03:22:11;101299.97;;;25.82;42.40
76973;BME280;65907;53.640;10.050;2023-07-09T03:24:36;101290.22;;;25.82;42.59
76973;BME280;65907;53.640;10.050;2023-07-09T03:27:01;101298.13;;;25.82;42.37
76973;BME280;65907;53.640;10.050;2023-07-09T03:29:27;101298.84;;;25.84;42.28
76973;BME280;65907;53.640;10.050;2023-07-09T03:31:52;101303.13;;;25.85;42.43
76973;BME280;65907;53.640;10.050;2023-07-09T03:34:17;101314.50;;;25.86;41.96
76973;BME280;65907;53.640;10.050;2023-07-09T03:36:43;101310.34;;;25.83;42.79
76973;BME280;65907;53.640;10.050;2023-07-09T03:39:09;101313.94;;;25.82;42.26
76973;BME280;65907;53.640;10.050;2023-07-09T03:41:34;101315.59;;;25.83;42.18
76973;BME280;65907;53.640;10.050;2023-07-09T03:43:59;101323.50;;;25.83;42.27
76973;BME280;65907;53.640;10.050;2023-07-09T03:46:24;101317.41;;;25.83;41.99
76973;BME280;65907;53.640;10.050;2023-07-09T03:48:50;101315.59;;;25.83;42.16
76973;BME280;65907;53.640;10.050;2023-07-09T03:51:15;101308.41;;;25.85;41.71
76973;BME280;65907;53.640;10.050;2023-07-09T03:53:41;101312.84;;;25.85;41.71
76973;BME280;65907;53.640;10.050;2023-07-09T03:56:06;101307.44;;;25.86;41.70
76973;BME280;65907;53.640;10.050;2023-07-09T03:58:32;101316.16;;;25.87;41.90
76973;BME280;65907;53.640;10.050;2023-07-09T04:00:57;101319.63;;;25.87;41.84
76973;BME280;65907;53.640;10.050;2023-07-09T04:03:23;101312.53;;;25.88;41.59
76973;BME280;65907;53.640;10.050;2023-07-09T04:05:48;101312.41;;;25.89;41.56
76973;BME280;65907;53.640;10.050;2023-07-09T04:08:14;101317.00;;;25.87;41.56
76973;BME280;65907;53.640;10.050;2023-07-09T04:10:39;101313.22;;;25.90;41.75
76973;BME280;65907;53.640;10.050;2023-07-09T04:13:04;101320.69;;;25.95;41.67
76973;BME280;65907;53.640;10.050;2023-07-09T04:15:30;101318.06;;;25.95;41.55
76973;BME280;65907;53.640;10.050;2023-07-09T04:17:55;101319.03;;;25.94;41.61
76973;BME280;65907;53.640;10.050;2023-07-09T04:20:20;101317.91;;;25.96;41.93
76973;BME280;65907;53.640;10.050;2023-07-09T04:22:46;101313.47;;;25.97;41.63
76973;BME280;65907;53.640;10.050;2023-07-09T04:25:12;101318.72;;;25.97;41.74
76973;BME280;65907;53.640;10.050;2023-07-09T04:27:37;101306.91;;;26.01;41.57
76973;BME280;65907;53.640;10.050;2023-07-09T04:30:04;101311.06;;;26.03;41.45
76973;BME280;65907;53.640;10.050;2023-07-09T04:32:30;101309.84;;;25.70;41.66
76973;BME280;65907;53.640;10.050;2023-07-09T04:34:55;101312.66;;;24.42;43.73
76973;BME280;65907;53.640;10.050;2023-07-09T04:37:20;101320.38;;;24.24;44.45
76973;BME280;65907;53.640;10.050;2023-07-09T04:39:46;101312.03;;;24.09;44.60
76973;BME280;65907;53.640;10.050;2023-07-09T04:42:13;101318.41;;;23.85;45.12
76973;BME280;65907;53.640;10.050;2023-07-09T04:44:39;101315.78;;;24.06;44.72
76973;BME280;65907;53.640;10.050;2023-07-09T04:47:04;101313.03;;;25.73;41.18
76973;BME280;65907;53.640;10.050;2023-07-09T04:49:30;101313.78;;;27.20;37.97
76973;BME280;65907;53.640;10.050;2023-07-09T04:51:55;101314.28;;;26.98;38.34
76973;BME280;65907;53.640;10.050;2023-07-09T04:54:22;101317.41;;;25.83;40.50
76973;BME280;65907;53.640;10.050;2023-07-09T04:56:47;101314.91;;;25.43;41.57
76973;BME280;65907;53.640;10.050;2023-07-09T04:59:13;101321.13;;;24.95;42.48
76973;BME280;65907;53.640;10.050;2023-07-09T05:01:38;101326.91;;;24.69;43.44
76973;BME280;65907;53.640;10.050;2023-07-09T05:04:16;101329.91;;;24.25;44.80
76973;BME280;65907;53.640;10.050;2023-07-09T05:07:02;101329.78;;;23.85;46.11
76973;BME280;65907;53.640;10.050;2023-07-09T05:09:27;101324.09;;;23.80;46.01
76973;BME280;65907;53.640;10.050;2023-07-09T05:11:53;101326.16;;;23.76;46.03
76973;BME280;65907;53.640;10.050;2023-07-09T05:14:18;101325.06;;;23.79;45.69
76973;BME280;65907;53.640;10.050;2023-07-09T05:16:45;101322.72;;;23.86;45.87
76973;BME280;65907;53.640;10.050;2023-07-09T05:21:46;101321.50;;;23.90;44.98
76973;BME280;65907;53.640;10.050;2023-07-09T05:24:11;101322.47;;;23.99;44.76
76973;BME280;65907;53.640;10.050;2023-07-09T05:26:39;101326.69;;;24.11;44.17
76973;BME280;65907;53.640;10.050;2023-07-09T05:29:04;101323.97;;;24.23;43.87
76973;BME280;65907;53.640;10.050;2023-07-09T05:37:36;101322.75;;;23.96;45.14
76973;BME280;65907;53.640;10.050;2023-07-09T05:43:17;101329.22;;;24.23;44.45
76973;BME280;65907;53.640;10.050;2023-07-09T05:45:42;101322.84;;;24.15;44.94
76973;BME280;65907;53.640;10.050;2023-07-09T05:48:08;101329.50;;;23.88;46.23
76973;BME280;65907;53.640;10.050;2023-07-09T05:50:34;101326.22;;;23.96;45.25
76973;BME280;65907;53.640;10.050;2023-07-09T05:53:00;101322.59;;;23.87;45.86
76973;BME280;65907;53.640;10.050;2023-07-09T05:55:25;101333.75;;;23.80;45.27
76973;BME280;65907;53.640;10.050;2023-07-09T05:57:51;101338.88;;;23.81;45.12
76973;BME280;65907;53.640;10.050;2023-07-09T06:00:17;101334.38;;;23.93;44.81
76973;BME280;65907;53.640;10.050;2023-07-09T06:02:42;101345.97;;;23.90;44.84
76973;BME280;65907;53.640;10.050;2023-07-09T06:05:07;101344.00;;;24.14;45.00
76973;BME280;65907;53.640;10.050;2023-07-09T06:07:36;101334.97;;;24.06;44.62
76973;BME280;65907;53.640;10.050;2023-07-09T06:10:02;101343.84;;;24.15;44.06
76973;BME280;65907;53.640;10.050;2023-07-09T06:12:27;101334.00;;;24.08;43.95
76973;BME280;65907;53.640;10.050;2023-07-09T06:14:53;101336.56;;;23.98;43.92
76973;BME280;65907;53.640;10.050;2023-07-09T06:17:18;101330.84;;;24.04;43.85
76973;BME280;65907;53.640;10.050;2023-07-09T06:19:45;101338.47;;;24.17;43.20
76973;BME280;65907;53.640;10.050;2023-07-09T06:22:12;101337.13;;;24.23;43.45
76973;BME280;65907;53.640;10.050;2023-07-09T06:24:37;101333.75;;;24.20;43.89
76973;BME280;65907;53.640;10.050;2023-07-09T06:27:02;101334.34;;;24.34;43.89
76973;BME280;65907;53.640;10.050;2023-07-09T06:29:27;101334.38;;;24.44;43.61
76973;BME280;65907;53.640;10.050;2023-07-09T06:31:54;101339.25;;;24.78;43.03
76973;BME280;65907;53.640;10.050;2023-07-09T06:34:19;101339.50;;;24.65;43.47
76973;BME280;65907;53.640;10.050;2023-07-09T06:36:44;101339.25;;;24.78;43.58
76973;BME280;65907;53.640;10.050;2023-07-09T06:39:10;101329.84;;;24.85;43.49
76973;BME280;65907;53.640;10.050;2023-07-09T06:41:35;101336.78;;;24.96;43.56
76973;BME280;65907;53.640;10.050;2023-07-09T06:44:07;101346.41;;;25.25;42.98
76973;BME280;65907;53.640;10.050;2023-07-09T06:46:32;101341.88;;;24.98;44.02
76973;BME280;65907;53.640;10.050;2023-07-09T06:48:58;101340.47;;;25.23;43.61
76973;BME280;65907;53.640;10.050;2023-07-09T06:51:23;101347.56;;;24.83;44.72
76973;BME280;65907;53.640;10.050;2023-07-09T06:53:49;101341.75;;;24.89;45.01
76973;BME280;65907;53.640;10.050;2023-07-09T06:56:16;101344.16;;;25.40;43.58
76973;BME280;65907;53.640;10.050;2023-07-09T06:58:41;101350.09;;;25.42;44.33
76973;BME280;65907;53.640;10.050;2023-07-09T07:01:07;101345.72;;;25.23;44.34
76973;BME280;65907;53.640;10.050;2023-07-09T07:03:37;101338.34;;;25.37;43.71
76973;BME280;65907;53.640;10.050;2023-07-09T07:06:08;101340.75;;;25.10;44.46
76973;BME280;65907;53.640;10.050;2023-07-09T07:08:34;101342.91;;;25.34;44.02
76973;BME280;65907;53.640;10.050;2023-07-09T07:11:02;101346.53;;;25.33;43.98
76973;BME280;65907;53.640;10.050;2023-07-09T07:13:35;101342.72;;;25.66;43.52
76973;BME280;65907;53.640;10.050;2023-07-09T07:16:04;101344.00;;;25.61;43.92
76973;BME280;65907;53.640;10.050;2023-07-09T07:18:34;101349.72;;;25.47;43.89
76973;BME280;65907;53.640;10.050;2023-07-09T07:21:00;101348.19;;;25.34;44.31
76973;BME280;65907;53.640;10.050;2023-07-09T07:23:25;101342.16;;;25.72;43.50
76973;BME280;65907;53.640;10.050;2023-07-09T07:25:50;101348.00;;;25.94;42.99
76973;BME280;65907;53.640;10.050;2023-07-09T07:28:17;101347.66;;;26.06;42.81
76973;BME280;65907;53.640;10.050;2023-07-09T07:30:42;101350.38;;;26.15;43.36
76973;BME280;65907;53.640;10.050;2023-07-09T07:33:08;101341.41;;;26.08;43.08
76973;BME280;65907;53.640;10.050;2023-07-09T07:35:33;101346.59;;;26.27;42.95
76973;BME280;65907;53.640;10.050;2023-07-09T07:38:01;101346.94;;;26.14;43.75
76973;BME280;65907;53.640;10.050;2023-07-09T07:40:29;101343.91;;;25.81;44.23
76973;BME280;65907;53.640;10.050;2023-07-09T07:42:56;101345.97;;;25.87;43.82
76973;BME280;65907;53.640;10.050;2023-07-09T07:45:23;101339.50;;;26.00;43.51
76973;BME280;65907;53.640;10.050;2023-07-09T07:47:51;101341.78;;;26.23;43.09
76973;BME280;65907;53.640;10.050;2023-07-09T07:50:17;101345.13;;;26.15;43.20
76973;BME280;65907;53.640;10.050;2023-07-09T07:52:42;101350.94;;;25.90;43.92
76973;BME280;65907;53.640;10.050;2023-07-09T07:55:08;101343.16;;;25.89;43.99
76973;BME280;65907;53.640;10.050;2023-07-09T07:57:35;101354.81;;;25.96;43.55
76973;BME280;65907;53.640;10.050;2023-07-09T08:00:01;101350.34;;;25.97;43.92
76973;BME280;65907;53.640;10.050;2023-07-09T08:02:28;101342.44;;;25.97;43.77
76973;BME280;65907;53.640;10.050;2023-07-09T08:04:53;101342.88;;;25.92;44.21
76973;BME280;65907;53.640;10.050;2023-07-09T08:07:19;101347.13;;;26.03;43.59
76973;BME280;65907;53.640;10.050;2023-07-09T08:09:44;101343.81;;;26.01;43.75
76973;BME280;65907;53.640;10.050;2023-07-09T08:12:11;101340.69;;;26.15;43.30
76973;BME280;65907;53.640;10.050;2023-07-09T08:14:37;101342.06;;;26.19;43.36
76973;BME280;65907;53.640;10.050;2023-07-09T08:17:02;101333.59;;;26.44;42.93
76973;BME280;65907;53.640;10.050;2023-07-09T08:19:29;101335.63;;;26.50;42.60
76973;BME280;65907;53.640;10.050;2023-07-09T08:21:54;101334.41;;;26.26;43.75
76973;BME280;65907;53.640;10.050;2023-07-09T08:24:19;101330.16;;;26.15;43.98
76973;BME280;65907;53.640;10.050;2023-07-09T08:26:45;101327.41;;;26.35;43.71
76973;BME280;65907;53.640;10.050;2023-07-09T08:29:12;101328.84;;;26.29;43.74
76973;BME280;65907;53.640;10.050;2023-07-09T08:31:41;101324.84;;;26.43;43.61
76973;BME280;65907;53.640;10.050;2023-07-09T08:34:07;101337.19;;;26.25;43.83
76973;BME280;65907;53.640;10.050;2023-07-09T08:36:32;101329.75;;;26.38;43.51
76973;BME280;65907;53.640;10.050;2023-07-09T08:38:57;101330.97;;;25.88;45.00
76973;BME280;65907;53.640;10.050;2023-07-09T08:41:45;101323.88;;;26.44;44.12
76973;BME280;65907;53.640;10.050;2023-07-09T08:49:23;101330.59;;;26.57;44.11
76973;BME280;65907;53.640;10.050;2023-07-09T08:52:02;101322.44;;;26.50;45.52
76973;BME280;65907;53.640;10.050;2023-07-09T08:54:33;101326.19;;;26.47;45.08
76973;BME280;65907;53.640;10.050;2023-07-09T08:57:13;101323.19;;;26.42;45.54
76973;BME280;65907;53.640;10.050;2023-07-09T08:59:51;101328.25;;;26.54;45.90
76973;BME280;65907;53.640;10.050;2023-07-09T09:02:51;101319.56;;;26.80;44.82
76973;BME280;65907;53.640;10.050;2023-07-09T09:05:23;101315.97;;;26.44;45.32
76973;BME280;65907;53.640;10.050;2023-07-09T09:08:16;101321.97;;;26.73;44.56
76973;BME280;65907;53.640;10.050;2023-07-09T09:17:19;101324.09;;;26.69;44.50
76973;BME280;65907;53.640;10.050;2023-07-09T09:26:28;101323.34;;;26.59;44.27
76973;BME280;65907;53.640;10.050;2023-07-09T09:29:09;101319.56;;;26.43;45.08
76973;BME280;65907;53.640;10.050;2023-07-09T09:31:35;101321.91;;;26.46;46.69
76973;BME280;65907;53.640;10.050;2023-07-09T09:34:01;101316.72;;;26.73;46.10
76973;BME280;65907;53.640;10.050;2023-07-09T09:36:32;101314.94;;;27.00;45.31
76973;BME280;65907;53.640;10.050;2023-07-09T09:39:02;101322.09;;;27.08;44.12
76973;BME280;65907;53.640;10.050;2023-07-09T09:41:30;101320.72;;;27.22;43.72
76973;BME280;65907;53.640;10.050;2023-07-09T09:43:57;101318.63;;;27.33;43.55
76973;BME280;65907;53.640;10.050;2023-07-09T09:46:23;101323.88;;;27.25;44.00
76973;BME280;65907;53.640;10.050;2023-07-09T09:48:54;101321.97;;;27.44;43.79
76973;BME280;65907;53.640;10.050;2023-07-09T09:51:23;101324.69;;;27.52;43.12
76973;BME280;65907;53.640;10.050;2023-07-09T09:53:50;101322.88;;;27.53;42.84
76973;BME280;65907;53.640;10.050;2023-07-09T09:56:23;101326.78;;;27.48;42.79
76973;BME280;65907;53.640;10.050;2023-07-09T09:58:54;101333.66;;;27.68;42.17
76973;BME280;65907;53.640;10.050;2023-07-09T10:01:27;101325.28;;;27.72;42.06
76973;BME280;65907;53.640;10.050;2023-07-09T10:03:55;101331.66;;;27.61;43.52
76973;BME280;65907;53.640;10.050;2023-07-09T10:06:24;101328.81;;;27.55;44.48
76973;BME280;65907;53.640;10.050;2023-07-09T10:08:59;101323.81;;;27.78;43.39
76973;BME280;65907;53.640;10.050;2023-07-09T10:14:07;101322.03;;;27.87;42.83
76973;BME280;65907;53.640;10.050;2023-07-09T10:16:42;101326.13;;;27.73;43.08
76973;BME280;65907;53.640;10.050;2023-07-09T10:19:17;101325.19;;;27.56;43.58
76973;BME280;65907;53.640;10.050;2023-07-09T10:21:54;101325.09;;;27.39;43.67
76973;BME280;65907;53.640;10.050;2023-07-09T10:34:54;101328.25;;;26.90;44.98
76973;BME280;65907;53.640;10.050;2023-07-09T10:37:29;101328.91;;;26.92;45.32
76973;BME280;65907;53.640;10.050;2023-07-09T10:39:58;101331.25;;;26.95;45.10
76973;BME280;65907;53.640;10.050;2023-07-09T10:44:53;101319.34;;;27.44;43.37
76973;BME280;65907;53.640;10.050;2023-07-09T10:50:05;101320.75;;;27.30;43.40
76973;BME280;65907;53.640;10.050;2023-07-09T10:52:39;101319.34;;;26.91;44.24
76973;BME280;65907;53.640;10.050;2023-07-09T11:00:34;101313.97;;;26.83;43.96
76973;BME280;65907;53.640;10.050;2023-07-09T11:03:00;101308.66;;;26.93;43.78
76973;BME280;65907;53.640;10.050;2023-07-09T11:05:27;101307.19;;;26.98;43.79
76973;BME280;65907;53.640;10.050;2023-07-09T11:08:12;101309.94;;;27.15;43.96
76973;BME280;65907;53.640;10.050;2023-07-09T11:10:41;101309.16;;;26.96;44.16
76973;BME280;65907;53.640;10.050;2023-07-09T11:13:12;101316.25;;;26.77;43.92
76973;BME280;65907;53.640;10.050;2023-07-09T11:15:40;101314.16;;;26.63;44.04
76973;BME280;65907;53.640;10.050;2023-07-09T11:18:09;101310.59;;;26.72;44.15
76973;BME280;65907;53.640;10.050;2023-07-09T11:20:41;101311.97;;;26.58;45.33
76973;BME280;65907;53.640;10.050;2023-07-09T11:23:16;101311.72;;;26.88;44.88
76973;BME280;65907;53.640;10.050;2023-07-09T11:25:43;101306.06;;;27.01;45.10
76973;BME280;65907;53.640;10.050;2023-07-09T11:28:09;101299.47;;;27.31;43.00
76973;BME280;65907;53.640;10.050;2023-07-09T11:30:44;101298.81;;;27.29;43.18
76973;BME280;65907;53.640;10.050;2023-07-09T11:33:20;101296.47;;;27.00;43.93
76973;BME280;65907;53.640;10.050;2023-07-09T11:35:52;101289.22;;;27.28;43.12
76973;BME280;65907;53.640;10.050;2023-07-09T11:38:19;101277.13;;;27.17;43.83
76973;BME280;65907;53.640;10.050;2023-07-09T11:40:52;101287.50;;;27.19;44.25
76973;BME280;65907;53.640;10.050;2023-07-09T11:46:14;101285.09;;;27.52;41.86
76973;BME280;65907;53.640;10.050;2023-07-09T11:48:41;101279.00;;;27.60;41.46
76973;BME280;65907;53.640;10.050;2023-07-09T11:51:20;101279.34;;;27.57;41.37
76973;BME280;65907;53.640;10.050;2023-07-09T11:53:49;101277.66;;;27.56;41.77
76973;BME280;65907;53.640;10.050;2023-07-09T11:56:17;101274.44;;;27.44;41.98
76973;BME280;65907;53.640;10.050;2023-07-09T11:58:49;101269.78;;;27.38;41.92
76973;BME280;65907;53.640;10.050;2023-07-09T12:01:16;101267.75;;;27.23;42.48
76973;BME280;65907;53.640;10.050;2023-07-09T12:03:44;101264.81;;;27.26;42.33
76973;BME280;65907;53.640;10.050;2023-07-09T12:06:16;101263.31;;;27.32;42.40
76973;BME280;65907;53.640;10.050;2023-07-09T12:08:43;101264.03;;;27.08;42.79
76973;BME280;65907;53.640;10.050;2023-07-09T12:13:51;101269.75;;;27.29;42.55
76973;BME280;65907;53.640;10.050;2023-07-09T12:16:30;101267.47;;;27.34;42.40
76973;BME280;65907;53.640;10.050;2023-07-09T12:18:58;101276.03;;;27.02;43.30
76973;BME280;65907;53.640;10.050;2023-07-09T12:21:24;101264.84;;;27.08;42.88
76973;BME280;65907;53.640;10.050;2023-07-09T12:23:52;101260.31;;;27.18;43.20
76973;BME280;65907;53.640;10.050;2023-07-09T12:26:19;101253.50;;;27.16;43.10
76973;BME280;65907;53.640;10.050;2023-07-09T12:28:51;101242.63;;;27.19;42.80
76973;BME280;65907;53.640;10.050;2023-07-09T12:31:18;101250.16;;;27.05;43.21
76973;BME280;65907;53.640;10.050;2023-07-09T12:33:50;101246.22;;;27.10;43.26
76973;BME280;65907;53.640;10.050;2023-07-09T12:36:16;101242.88;;;26.99;43.32
76973;BME280;65907;53.640;10.050;2023-07-09T12:38:45;101241.97;;;27.17;43.05
76973;BME280;65907;53.640;10.050;2023-07-09T12:41:27;101238.66;;;27.15;43.16
76973;BME280;65907;53.640;10.050;2023-07-09T12:43:53;101234.53;;;27.12;43.01
76973;BME280;65907;53.640;10.050;2023-07-09T12:46:20;101237.31;;;27.11;42.78
76973;BME280;65907;53.640;10.050;2023-07-09T12:48:45;101240.09;;;27.09;43.30
76973;BME280;65907;53.640;10.050;2023-07-09T12:51:15;101238.16;;;27.11;43.30
76973;BME280;65907;53.640;10.050;2023-07-09T12:53:41;101231.81;;;27.30;43.14
76973;BME280;65907;53.640;10.050;2023-07-09T12:56:11;101233.16;;;27.43;42.95
76973;BME280;65907;53.640;10.050;2023-07-09T12:58:36;101228.19;;;27.31;43.21
76973;BME280;65907;53.640;10.050;2023-07-09T13:01:07;101224.41;;;26.99;44.91
76973;BME280;65907;53.640;10.050;2023-07-09T13:03:34;101218.81;;;27.02;45.24
76973;BME280;65907;53.640;10.050;2023-07-09T13:08:25;101213.84;;;26.99;45.31
76973;BME280;65907;53.640;10.050;2023-07-09T13:10:53;101209.28;;;27.10;44.88
76973;BME280;65907;53.640;10.050;2023-07-09T13:13:20;101210.03;;;27.37;44.28
76973;BME280;65907;53.640;10.050;2023-07-09T13:15:51;101202.84;;;27.47;44.16
76973;BME280;65907;53.640;10.050;2023-07-09T13:18:16;101199.03;;;27.49;43.99
76973;BME280;65907;53.640;10.050;2023-07-09T13:20:43;101200.91;;;27.23;44.18
76973;BME280;65907;53.640;10.050;2023-07-09T13:23:27;101198.53;;;27.46;43.93
76973;BME280;65907;53.640;10.050;2023-07-09T13:25:53;101196.72;;;27.46;43.69
76973;BME280;65907;53.640;10.050;2023-07-09T13:28:23;101189.63;;;27.47;43.76
76973;BME280;65907;53.640;10.050;2023-07-09T13:30:52;101182.28;;;27.24;43.85
76973;BME280;65907;53.640;10.050;2023-07-09T13:33:20;101182.59;;;27.21;43.99
76973;BME280;65907;53.640;10.050;2023-07-09T13:35:46;101180.56;;;27.07;43.94
76973;BME280;65907;53.640;10.050;2023-07-09T13:38:12;101185.50;;;27.01;44.04
76973;BME280;65907;53.640;10.050;2023-07-09T13:40:37;101175.09;;;27.00;44.10
76973;BME280;65907;53.640;10.050;2023-07-09T13:43:15;101165.03;;;27.03;43.94
76973;BME280;65907;53.640;10.050;2023-07-09T13:45:41;101158.81;;;27.21;43.92
76973;BME280;65907;53.640;10.050;2023-07-09T13:48:17;101155.91;;;27.24;43.56
76973;BME280;65907;53.640;10.050;2023-07-09T13:50:43;101153.25;;;27.24;43.52
76973;BME280;65907;53.640;10.050;2023-07-09T13:53:11;101151.91;;;27.20;43.55